This is the latest recevied weather packets stored in our database for station/object DO7ZT-13. If no packets are shown the sender has not sent any weather packets the latest 10 day(s).
| Time | Temp. | Humidity | Pressure | Rain* | Wind** | Luminosity | Snow |
|---|---|---|---|---|---|---|---|
| 1777895721 | 22.78° C | 37% | 1012.6 hPa | 0 mm | 0.45 m/s, 214° | - | - |
| 1777895409 | 22.22° C | 38% | 1012.6 hPa | 0 mm | 0.45 m/s, 258° | - | - |
| 1777895121 | 23.89° C | 36% | 1012.7 hPa | 0 mm | 0.45 m/s, 274° | - | - |
| 1777894809 | 22.78° C | 38% | 1012.7 hPa | 0 mm | 0 m/s | - | - |
| 1777894521 | 22.22° C | 41% | 1012.7 hPa | 0 mm | 0 m/s | - | - |
| 1777894209 | 22.22° C | 39% | 1012.8 hPa | 0 mm | 0.45 m/s, 159° | - | - |
| 1777893921 | 22.78° C | 37% | 1012.8 hPa | 0 mm | 0.89 m/s, 174° | - | - |
| 1777893609 | 22.78° C | 39% | 1012.8 hPa | 0 mm | 0.45 m/s, 4° | - | - |
| 1777893321 | 22.78° C | 39% | 1013 hPa | 0 mm | 0.45 m/s, 288° | - | - |
| 1777893009 | 22.22° C | 38% | 1013 hPa | 0 mm | 0.89 m/s, 191° | - | - |
| 1777892721 | 22.22° C | 37% | 1013 hPa | 0 mm | 1.34 m/s, 258° | - | - |
| 1777892409 | 22.22° C | 38% | 1013.2 hPa | 0 mm | 0.45 m/s, 263° | - | - |
| 1777892121 | 22.78° C | 37% | 1013.2 hPa | 0 mm | 0 m/s | - | - |
| 1777891809 | 22.78° C | 38% | 1013.2 hPa | 0 mm | 0 m/s | - | - |
| 1777891521 | 22.22° C | 36% | 1013.4 hPa | 0 mm | 0.45 m/s, 286° | - | - |
| 1777891209 | 22.22° C | 38% | 1013.4 hPa | 0 mm | 1.34 m/s, 209° | - | - |
| 1777890921 | 22.22° C | 39% | 1013.4 hPa | 0 mm | 0.89 m/s, 263° | - | - |
| 1777890610 | 22.22° C | 38% | 1013.5 hPa | 0 mm | 0.89 m/s, 174° | - | - |
| 1777890322 | 22.22° C | 38% | 1013.5 hPa | 0 mm | 0 m/s | - | - |
| 1777890009 | 22.22° C | 39% | 1013.5 hPa | 0 mm | 0.45 m/s, 283° | - | - |
| 1777889734 | 22.22° C | 38% | 1013.7 hPa | 0 mm | 0.45 m/s, 265° | - | - |
| 1777889421 | 21.11° C | 41% | 1013.7 hPa | 0 mm | 0.45 m/s, 256° | - | - |
| 1777889109 | 21.11° C | 42% | 1013.7 hPa | 0 mm | 0.45 m/s, 347° | - | - |
| 1777888821 | 22.22° C | 40% | 1013.9 hPa | 0 mm | 0.45 m/s, 264° | - | - |
| 1777888509 | 22.22° C | 39% | 1013.9 hPa | 0 mm | 0.89 m/s, 198° | - | - |
* Rain latest hour (hover to see other rain measurements)
** Current wind speed in m/s (hover to see current wind gust speed)